createdAt,value
2023-04-23T00:04:01.933Z,23.60
2023-04-23T00:06:34.346Z,23.60
2023-04-23T00:09:08.016Z,24.70
2023-04-23T00:11:41.095Z,23.50
2023-04-23T00:14:14.041Z,24.00
2023-04-23T00:16:46.770Z,21.70
2023-04-23T00:19:19.370Z,22.90
2023-04-23T00:21:51.597Z,23.00
2023-04-23T00:24:23.358Z,16.30
2023-04-23T00:26:55.207Z,23.30
2023-04-23T00:29:27.072Z,23.30
2023-04-23T00:31:58.919Z,23.20
2023-04-23T00:34:31.129Z,23.40
2023-04-23T00:37:06.081Z,23.10
2023-04-23T00:39:38.791Z,21.80
2023-04-23T00:44:45.317Z,21.50
2023-04-23T00:49:48.649Z,21.50
2023-04-23T00:52:20.412Z,21.70
2023-04-23T00:54:52.244Z,22.30
2023-04-23T00:57:24.402Z,21.80
2023-04-23T00:59:58.255Z,23.30
2023-04-23T01:02:32.199Z,23.60
2023-04-23T01:05:05.615Z,22.40
2023-04-23T01:07:38.585Z,22.60
2023-04-23T01:10:13.131Z,23.70
2023-04-23T01:12:44.950Z,24.30
2023-04-23T01:15:16.724Z,23.60
2023-04-23T01:17:48.892Z,24.50
2023-04-23T01:20:20.785Z,23.30
2023-04-23T01:22:53.141Z,23.00
2023-04-23T01:25:25.104Z,24.20
2023-04-23T01:27:58.096Z,23.20
2023-04-23T01:30:30.899Z,23.80
2023-04-23T01:35:34.942Z,22.50
2023-04-23T01:38:08.138Z,23.00
2023-04-23T01:40:40.667Z,23.80
2023-04-23T01:43:12.883Z,23.70
2023-04-23T01:45:45.672Z,24.10
2023-04-23T01:48:17.536Z,24.50
2023-04-23T01:50:49.616Z,24.70
2023-04-23T01:53:21.492Z,24.90
2023-04-23T01:55:54.885Z,24.60
2023-04-23T01:58:26.956Z,24.20
2023-04-23T02:00:58.990Z,24.20
2023-04-23T02:03:34.485Z,17.20
2023-04-23T02:06:06.892Z,26.00
2023-04-23T02:08:38.740Z,25.10
2023-04-23T02:11:14.593Z,26.80
2023-04-23T02:13:48.113Z,26.30
2023-04-23T02:16:20.914Z,25.20
2023-04-23T02:21:24.706Z,24.70
2023-04-23T02:23:57.440Z,25.10
2023-04-23T02:26:29.707Z,26.40
2023-04-23T02:29:01.517Z,25.30
2023-04-23T02:31:33.604Z,17.20
2023-04-23T02:34:05.439Z,24.80
2023-04-23T02:36:38.360Z,25.90
2023-04-23T02:39:10.937Z,24.90
2023-04-23T02:41:42.598Z,25.40
2023-04-23T02:44:14.309Z,25.30
2023-04-23T02:46:46.572Z,25.80
2023-04-23T02:49:20.145Z,28.10
2023-04-23T02:51:52.349Z,24.80
2023-04-23T02:54:25.105Z,25.20
2023-04-23T02:56:57.433Z,25.30
2023-04-23T02:59:29.240Z,24.00
2023-04-23T03:02:01.683Z,25.00
2023-04-23T03:04:33.581Z,25.20
2023-04-23T03:07:05.535Z,25.20
2023-04-23T03:09:37.748Z,26.30
2023-04-23T03:12:09.663Z,19.30
2023-04-23T03:14:41.975Z,25.50
2023-04-23T03:19:44.981Z,24.30
2023-04-23T03:22:17.320Z,25.70
2023-04-23T03:24:49.145Z,24.00
2023-04-23T03:27:20.881Z,27.50
2023-04-23T03:29:53.136Z,27.10
2023-04-23T03:32:25.879Z,18.70
2023-04-23T03:37:28.451Z,25.70
2023-04-23T03:40:01.462Z,25.90
2023-04-23T03:42:35.120Z,25.10
2023-04-23T03:45:09.505Z,26.60
2023-04-23T03:47:41.796Z,25.20
2023-04-23T03:50:14.235Z,26.80
2023-04-23T03:52:46.991Z,28.10
2023-04-23T03:55:25.296Z,27.30
2023-04-23T03:57:57.206Z,28.10
2023-04-23T04:00:31.322Z,26.90
2023-04-23T04:03:04.495Z,26.30
2023-04-23T04:05:37.318Z,27.20
2023-04-23T04:08:09.343Z,28.60
2023-04-23T04:10:41.824Z,27.70
2023-04-23T04:13:16.074Z,27.90
2023-04-23T04:15:48.339Z,27.20
2023-04-23T04:18:21.187Z,28.60
2023-04-23T04:23:24.216Z,28.50
2023-04-23T04:25:57.662Z,28.90
2023-04-23T04:28:30.177Z,28.20
2023-04-23T04:31:02.071Z,26.90
2023-04-23T04:33:35.740Z,28.80
2023-04-23T04:36:09.541Z,28.70
2023-04-23T04:38:41.764Z,28.70
2023-04-23T04:41:13.879Z,27.40
2023-04-23T04:43:46.096Z,27.50
2023-04-23T04:46:19.900Z,29.90
2023-04-23T04:48:52.105Z,27.40
2023-04-23T04:51:24.124Z,27.30
2023-04-23T04:53:56.682Z,27.90
2023-04-23T04:56:28.608Z,28.40
2023-04-23T04:59:00.446Z,27.60
2023-04-23T05:01:33.333Z,27.10
2023-04-23T05:04:05.615Z,26.30
2023-04-23T05:06:37.678Z,24.90
2023-04-23T05:09:10.677Z,25.90
2023-04-23T05:11:42.946Z,24.80
2023-04-23T05:14:14.782Z,26.30
2023-04-23T05:16:46.766Z,24.60
2023-04-23T05:19:18.818Z,23.00
2023-04-23T05:21:50.884Z,23.00
2023-04-23T05:24:22.877Z,22.50
2023-04-23T05:26:54.923Z,21.90
2023-04-23T05:29:26.839Z,20.70
2023-04-23T05:31:59.047Z,22.10
2023-04-23T05:34:30.978Z,21.10
2023-04-23T05:37:02.830Z,21.60
2023-04-23T05:39:34.714Z,20.30
2023-04-23T05:42:07.173Z,19.50
2023-04-23T05:44:42.436Z,20.10
2023-04-23T05:47:16.434Z,19.90
2023-04-23T05:49:48.627Z,18.50
2023-04-23T05:52:27.405Z,19.90
2023-04-23T05:54:59.617Z,19.80
2023-04-23T05:57:31.565Z,18.60
2023-04-23T06:00:03.658Z,18.60
2023-04-23T06:02:44.576Z,18.80
2023-04-23T06:05:16.724Z,17.20
2023-04-23T06:07:48.974Z,17.40
2023-04-23T06:10:21.025Z,16.00
2023-04-23T06:12:55.275Z,18.70
2023-04-23T06:15:27.426Z,18.80
2023-04-23T06:17:59.637Z,17.30
2023-04-23T06:20:32.059Z,17.80
2023-04-23T06:23:06.525Z,15.90
2023-04-23T06:25:38.709Z,17.20
2023-04-23T06:28:11.818Z,15.90
2023-04-23T06:31:05.671Z,17.20
2023-04-23T06:33:38.504Z,16.70
2023-04-23T06:36:11.921Z,16.50
2023-04-23T06:38:45.643Z,16.50
2023-04-23T06:41:18.093Z,14.60
2023-04-23T06:43:50.001Z,14.40
2023-04-23T06:46:37.504Z,15.20
2023-04-23T06:49:09.791Z,14.20
2023-04-23T06:51:41.713Z,12.90
2023-04-23T06:54:13.654Z,13.40
2023-04-23T06:56:45.615Z,12.30
2023-04-23T06:59:17.824Z,13.50
2023-04-23T07:01:57.084Z,11.70
2023-04-23T07:04:28.998Z,13.00
2023-04-23T07:07:05.179Z,12.80
2023-04-23T07:09:38.081Z,10.70
2023-04-23T07:12:10.534Z,11.50
2023-04-23T07:14:42.449Z,12.00
2023-04-23T07:19:45.694Z,10.90
2023-04-23T07:22:17.614Z,11.20
2023-04-23T07:24:49.513Z,12.10
2023-04-23T07:27:21.786Z,12.70
2023-04-23T07:29:53.702Z,11.80
2023-04-23T07:32:28.433Z,10.20
2023-04-23T07:35:00.701Z,10.60
2023-04-23T07:37:33.155Z,10.80
2023-04-23T07:40:08.824Z,10.30
2023-04-23T07:42:45.928Z,10.30
2023-04-23T07:45:19.347Z,9.60
2023-04-23T07:47:52.788Z,9.20
2023-04-23T07:50:28.475Z,9.60
2023-04-23T07:53:05.614Z,9.50
2023-04-23T07:55:39.118Z,8.80
2023-04-23T07:58:14.923Z,8.70
2023-04-23T08:00:50.766Z,9.70
2023-04-23T08:03:23.415Z,9.20
2023-04-23T08:05:56.806Z,8.60
2023-04-23T08:08:31.054Z,8.10
2023-04-23T08:11:04.830Z,8.90
2023-04-23T08:13:37.062Z,7.70
2023-04-23T08:16:09.281Z,7.80
2023-04-23T08:18:42.059Z,5.20
2023-04-23T08:21:14.440Z,7.40
2023-04-23T08:23:47.018Z,8.00
2023-04-23T08:26:19.133Z,8.10
2023-04-23T08:28:51.277Z,7.00
2023-04-23T08:31:26.953Z,7.50
2023-04-23T08:34:00.205Z,7.90
2023-04-23T08:36:33.023Z,7.00
2023-04-23T08:39:05.863Z,7.60
2023-04-23T08:44:27.934Z,6.40
2023-04-23T08:47:05.562Z,7.20
2023-04-23T08:49:38.410Z,6.40
2023-04-23T08:52:26.195Z,7.10
2023-04-23T08:55:10.625Z,6.40
2023-04-23T08:57:43.824Z,6.80
2023-04-23T09:00:19.091Z,7.40
2023-04-23T09:02:51.742Z,6.60
2023-04-23T09:05:32.138Z,7.00
2023-04-23T09:08:04.388Z,7.40
2023-04-23T09:10:52.032Z,6.90
2023-04-23T09:13:24.129Z,6.80
2023-04-23T09:15:56.030Z,5.60
2023-04-23T09:18:27.848Z,6.80
2023-04-23T09:21:04.838Z,5.70
2023-04-23T09:23:41.319Z,5.90
2023-04-23T09:26:24.909Z,6.10
2023-04-23T09:28:58.534Z,6.40
2023-04-23T09:31:32.880Z,5.90
2023-04-23T09:34:05.511Z,6.30
2023-04-23T09:36:40.454Z,7.10
2023-04-23T09:39:16.827Z,6.00
2023-04-23T09:41:48.944Z,6.00
2023-04-23T09:44:23.547Z,6.70
2023-04-23T09:46:55.597Z,6.30
2023-04-23T09:49:27.250Z,7.60
2023-04-23T09:52:06.721Z,7.30
2023-04-23T09:54:38.592Z,6.30
2023-04-23T09:57:10.369Z,7.60
2023-04-23T09:59:48.943Z,7.80
2023-04-23T10:02:30.076Z,7.40
2023-04-23T10:05:21.077Z,7.80
2023-04-23T10:07:54.696Z,7.00
2023-04-23T10:10:27.873Z,6.60
2023-04-23T10:13:01.080Z,6.70
2023-04-23T10:15:34.145Z,6.00
2023-04-23T10:18:09.136Z,5.50
2023-04-23T10:20:42.824Z,6.20
2023-04-23T10:23:16.535Z,6.10
2023-04-23T10:25:50.064Z,6.10
2023-04-23T10:28:29.114Z,5.90
2023-04-23T10:31:03.961Z,6.90
2023-04-23T10:33:42.906Z,5.90
2023-04-23T10:36:30.128Z,6.70
2023-04-23T10:39:04.328Z,5.60
2023-04-23T10:41:39.633Z,6.00
2023-04-23T10:44:16.678Z,5.60
2023-04-23T10:46:56.747Z,5.40
2023-04-23T10:49:31.450Z,5.90
2023-04-23T10:54:41.482Z,5.80
2023-04-23T10:57:14.211Z,6.10
2023-04-23T10:59:58.932Z,6.50
2023-04-23T11:02:46.178Z,5.90
2023-04-23T11:05:18.682Z,5.90
2023-04-23T11:08:18.168Z,6.00
2023-04-23T11:11:02.781Z,6.10
2023-04-23T11:13:34.766Z,5.70
2023-04-23T11:16:22.526Z,5.40
2023-04-23T11:19:06.342Z,5.20
2023-04-23T11:21:59.462Z,6.00
2023-04-23T11:24:32.427Z,5.40
2023-04-23T11:27:06.205Z,5.80
2023-04-23T11:29:40.418Z,4.80
2023-04-23T11:32:14.261Z,4.70
2023-04-23T11:34:47.826Z,5.40
2023-04-23T11:37:21.084Z,4.00
2023-04-23T11:39:52.937Z,4.70
2023-04-23T11:42:25.914Z,4.30
2023-04-23T11:44:57.671Z,5.10
2023-04-23T11:47:29.528Z,4.90
2023-04-23T11:50:03.935Z,5.60
2023-04-23T11:52:37.243Z,5.40
2023-04-23T11:55:11.555Z,5.50
2023-04-23T11:57:46.200Z,5.20
2023-04-23T12:00:21.196Z,4.80
2023-04-23T12:02:58.957Z,5.30
2023-04-23T12:05:33.649Z,5.60
2023-04-23T12:08:13.461Z,5.50
2023-04-23T12:10:50.030Z,7.20
2023-04-23T12:13:25.075Z,5.60
2023-04-23T12:15:59.594Z,5.60
2023-04-23T12:18:32.699Z,5.70
2023-04-23T12:21:09.458Z,6.00
2023-04-23T12:23:44.793Z,5.40
2023-04-23T12:26:21.361Z,5.40
2023-04-23T12:28:55.425Z,6.70
2023-04-23T12:31:28.996Z,5.30
2023-04-23T12:34:05.424Z,4.90
2023-04-23T12:36:40.949Z,4.80
2023-04-23T12:39:33.752Z,4.40
2023-04-23T12:42:09.912Z,4.70
2023-04-23T12:44:42.245Z,5.40
2023-04-23T12:47:15.499Z,4.60
2023-04-23T12:49:49.569Z,6.40
2023-04-23T12:52:21.486Z,6.20
2023-04-23T12:54:56.772Z,5.50
2023-04-23T12:57:29.067Z,16.90
2023-04-23T13:00:00.833Z,7.40
2023-04-23T13:02:33.345Z,4.90
2023-04-23T13:05:07.523Z,4.70
2023-04-23T13:07:39.580Z,4.90
2023-04-23T13:10:13.769Z,4.70
2023-04-23T13:12:46.802Z,3.70
2023-04-23T13:17:53.414Z,5.80
2023-04-23T13:20:31.041Z,4.80
2023-04-23T13:23:04.060Z,5.20
2023-04-23T13:25:36.354Z,4.60
2023-04-23T13:28:08.624Z,5.20
2023-04-23T13:30:40.851Z,5.20
2023-04-23T13:33:16.917Z,4.50
2023-04-23T13:35:50.328Z,5.10
2023-04-23T13:38:22.898Z,4.70
2023-04-23T13:40:55.493Z,4.30
2023-04-23T13:43:30.516Z,4.60
2023-04-23T13:46:03.222Z,4.90
2023-04-23T13:48:37.072Z,4.30
2023-04-23T13:51:27.094Z,4.70
2023-04-23T13:54:05.094Z,4.30
2023-04-23T13:56:38.452Z,4.40
2023-04-23T13:59:18.918Z,3.80
2023-04-23T14:01:53.328Z,4.00
2023-04-23T14:04:27.160Z,4.40
2023-04-23T14:07:00.182Z,5.20
2023-04-23T14:09:32.962Z,4.80
2023-04-23T14:12:06.874Z,4.80
2023-04-23T14:14:39.190Z,5.10
2023-04-23T14:17:11.892Z,4.60
2023-04-23T14:19:44.351Z,4.60
2023-04-23T14:22:16.548Z,4.40
2023-04-23T14:24:52.687Z,5.50
2023-04-23T14:27:30.627Z,5.00
2023-04-23T14:30:15.045Z,4.70
2023-04-23T14:32:50.491Z,5.70
2023-04-23T14:35:35.637Z,5.10
2023-04-23T14:38:14.711Z,5.60
2023-04-23T14:40:46.801Z,5.30
2023-04-23T14:43:19.191Z,5.60
2023-04-23T14:45:52.022Z,5.80
2023-04-23T14:48:24.190Z,5.50
2023-04-23T14:50:56.196Z,5.00
2023-04-23T14:53:28.221Z,5.20
2023-04-23T14:56:00.405Z,5.30
2023-04-23T14:58:32.472Z,6.00
2023-04-23T15:01:06.995Z,5.90
2023-04-23T15:03:40.510Z,6.10
2023-04-23T15:08:46.252Z,6.10
2023-04-23T15:11:18.710Z,7.00
2023-04-23T15:14:03.859Z,6.60
2023-04-23T15:19:12.891Z,5.80
2023-04-23T15:21:44.697Z,5.40
2023-04-23T15:24:17.378Z,6.20
2023-04-23T15:26:49.668Z,6.00
2023-04-23T15:29:23.100Z,6.00
2023-04-23T15:31:58.249Z,6.60
2023-04-23T15:34:30.579Z,6.10
2023-04-23T15:37:03.921Z,6.90
2023-04-23T15:39:36.253Z,6.40
2023-04-23T15:42:08.691Z,6.90
2023-04-23T15:44:41.761Z,6.20
2023-04-23T15:47:16.499Z,6.40
2023-04-23T15:49:51.190Z,6.80
2023-04-23T15:52:23.422Z,7.00
2023-04-23T15:54:56.261Z,6.90
2023-04-23T15:57:29.000Z,7.20
2023-04-23T16:00:01.950Z,8.00
2023-04-23T16:02:44.851Z,8.10
2023-04-23T16:05:19.109Z,7.90
2023-04-23T16:07:51.731Z,7.60
2023-04-23T16:10:24.282Z,8.70
2023-04-23T16:12:58.955Z,8.10
2023-04-23T16:15:32.496Z,8.40
2023-04-23T16:18:06.136Z,8.10
2023-04-23T16:20:39.620Z,7.80
2023-04-23T16:23:11.874Z,9.60
2023-04-23T16:25:46.710Z,9.20
2023-04-23T16:28:19.948Z,9.80
2023-04-23T16:30:52.146Z,9.30
2023-04-23T16:33:25.870Z,9.10
2023-04-23T16:35:59.786Z,9.50
2023-04-23T16:38:32.311Z,9.80
2023-04-23T16:41:04.420Z,10.70
2023-04-23T16:43:37.771Z,10.40
2023-04-23T16:46:11.639Z,10.50
2023-04-23T16:48:44.650Z,10.20
2023-04-23T16:51:32.526Z,10.30
2023-04-23T16:54:05.263Z,11.40
2023-04-23T16:56:37.964Z,12.00
2023-04-23T16:59:11.680Z,11.90
2023-04-23T17:01:46.928Z,11.30
2023-04-23T17:04:19.148Z,12.30
2023-04-23T17:06:52.230Z,12.30
2023-04-23T17:09:28.109Z,12.30
2023-04-23T17:12:00.875Z,12.60
2023-04-23T17:14:32.866Z,12.50
2023-04-23T17:17:05.626Z,13.20
2023-04-23T17:19:38.921Z,13.30
2023-04-23T17:22:13.626Z,14.00
2023-04-23T17:24:46.164Z,14.30
2023-04-23T17:27:18.822Z,13.70
2023-04-23T17:29:51.894Z,14.60
2023-04-23T17:32:24.291Z,15.00
2023-04-23T17:35:06.311Z,8.40
2023-04-23T17:37:41.909Z,11.40
2023-04-23T17:40:14.920Z,10.70
2023-04-23T17:42:47.209Z,11.10
2023-04-23T17:45:19.973Z,10.70
2023-04-23T17:47:52.130Z,11.70
2023-04-23T17:50:24.164Z,12.70
2023-04-23T17:52:56.000Z,11.70
2023-04-23T17:55:27.937Z,11.60
2023-04-23T17:58:00.511Z,11.20
2023-04-23T18:03:03.191Z,11.00
2023-04-23T18:05:35.348Z,10.80
2023-04-23T18:08:08.127Z,12.10
2023-04-23T18:10:40.293Z,13.10
2023-04-23T18:13:12.406Z,12.60
2023-04-23T18:15:49.477Z,11.70
2023-04-23T18:18:22.351Z,12.50
2023-04-23T18:20:54.467Z,11.70
2023-04-23T18:23:26.766Z,12.10
2023-04-23T18:26:01.317Z,13.30
2023-04-23T18:28:34.980Z,13.20
2023-04-23T18:31:07.531Z,13.50
2023-04-23T18:33:54.424Z,12.10
2023-04-23T18:36:33.237Z,12.70
2023-04-23T18:39:07.331Z,13.00
2023-04-23T18:41:39.182Z,13.20
2023-04-23T18:44:13.033Z,13.00
2023-04-23T18:46:45.451Z,12.50
2023-04-23T18:49:44.755Z,15.30
2023-04-23T18:52:17.069Z,14.40
2023-04-23T18:54:52.308Z,13.30
2023-04-23T18:57:24.439Z,13.80
2023-04-23T18:59:56.716Z,14.40
2023-04-23T19:05:07.896Z,15.10
2023-04-23T19:07:42.316Z,14.70
2023-04-23T19:10:17.405Z,13.20
2023-04-23T19:12:51.387Z,13.40
2023-04-23T19:15:24.295Z,13.00
2023-04-23T19:17:56.917Z,13.20
2023-04-23T19:20:31.082Z,10.90
2023-04-23T19:23:05.209Z,12.80
2023-04-23T19:25:37.792Z,12.60
2023-04-23T19:28:13.274Z,11.60
2023-04-23T19:30:46.091Z,11.20
2023-04-23T19:33:21.528Z,11.60
2023-04-23T19:35:54.112Z,12.00
2023-04-23T19:38:29.463Z,12.30
2023-04-23T19:41:02.082Z,11.00
2023-04-23T19:43:35.494Z,11.00
2023-04-23T19:46:07.675Z,11.50
2023-04-23T19:48:39.710Z,8.10
2023-04-23T19:51:12.064Z,12.10
2023-04-23T19:53:44.179Z,11.70
2023-04-23T19:56:17.871Z,11.10
2023-04-23T19:58:50.648Z,13.10
2023-04-23T20:01:23.930Z,11.80
2023-04-23T20:03:59.604Z,11.80
2023-04-23T20:06:40.901Z,13.30
2023-04-23T20:09:21.154Z,12.60
2023-04-23T20:11:54.034Z,13.40
2023-04-23T20:16:57.833Z,13.40
2023-04-23T20:19:31.387Z,13.40
2023-04-23T20:22:04.403Z,14.80
2023-04-23T20:24:40.407Z,12.50
2023-04-23T20:27:12.555Z,13.70
2023-04-23T20:29:45.001Z,13.60
2023-04-23T20:32:17.587Z,13.00
2023-04-23T20:34:51.224Z,12.40
2023-04-23T20:37:27.005Z,13.80
2023-04-23T20:40:00.017Z,12.50
2023-04-23T20:42:32.406Z,12.10
2023-04-23T20:45:06.735Z,12.60
2023-04-23T20:47:39.949Z,13.60
2023-04-23T20:50:14.759Z,13.80
2023-04-23T20:52:48.337Z,13.30
2023-04-23T20:55:22.372Z,13.80
2023-04-23T20:57:54.658Z,13.70
2023-04-23T21:00:28.035Z,12.40
2023-04-23T21:03:00.571Z,14.60
2023-04-23T21:05:32.834Z,14.20
2023-04-23T21:08:06.076Z,12.80
2023-04-23T21:10:40.383Z,12.80
2023-04-23T21:13:13.589Z,12.50
2023-04-23T21:15:46.090Z,13.70
2023-04-23T21:18:20.263Z,14.20
2023-04-23T21:20:52.310Z,14.50
2023-04-23T21:23:26.553Z,14.50
2023-04-23T21:25:59.482Z,15.20
2023-04-23T21:28:32.107Z,14.60
2023-04-23T21:31:12.489Z,14.70
2023-04-23T21:33:45.451Z,14.50
2023-04-23T21:38:50.155Z,14.50
2023-04-23T21:41:23.015Z,15.20
2023-04-23T21:43:56.711Z,15.20
2023-04-23T21:46:30.546Z,15.00
2023-04-23T21:49:03.015Z,15.40
2023-04-23T21:51:37.059Z,14.80
2023-04-23T21:54:11.084Z,15.10
2023-04-23T21:56:43.713Z,15.10
2023-04-23T21:59:19.162Z,14.80
2023-04-23T22:01:52.068Z,14.50
2023-04-23T22:04:28.051Z,14.80
2023-04-23T22:07:03.703Z,14.30
2023-04-23T22:09:36.015Z,15.70
2023-04-23T22:12:09.512Z,16.60
2023-04-23T22:14:41.692Z,16.40
2023-04-23T22:17:13.802Z,11.20
2023-04-23T22:19:46.411Z,16.80
2023-04-23T22:24:49.835Z,16.50
2023-04-23T22:27:22.169Z,16.80
2023-04-23T22:29:55.024Z,17.70
2023-04-23T22:32:27.389Z,17.90
2023-04-23T22:35:00.229Z,16.70
2023-04-23T22:37:33.201Z,18.30
2023-04-23T22:40:07.618Z,17.00
2023-04-23T22:42:39.575Z,16.30
2023-04-23T22:45:12.135Z,19.40
2023-04-23T22:50:16.873Z,21.10
2023-04-23T22:52:48.929Z,20.10
2023-04-23T22:55:20.909Z,23.00
2023-04-23T22:57:53.611Z,23.70
2023-04-23T23:00:26.545Z,25.60
2023-04-23T23:05:29.875Z,25.20
2023-04-23T23:08:02.333Z,25.00
2023-04-23T23:10:34.661Z,24.30
2023-04-23T23:13:07.247Z,21.40
2023-04-23T23:15:39.235Z,22.40
2023-04-23T23:18:11.369Z,16.70
2023-04-23T23:20:45.176Z,24.60
2023-04-23T23:23:17.104Z,24.20
2023-04-23T23:25:49.112Z,17.30
2023-04-23T23:28:21.359Z,26.00
2023-04-23T23:30:53.776Z,25.00
2023-04-23T23:33:27.314Z,25.10
2023-04-23T23:36:00.111Z,25.80
2023-04-23T23:38:32.390Z,23.30
2023-04-23T23:41:04.432Z,24.30
2023-04-23T23:43:36.782Z,23.00
2023-04-23T23:46:09.176Z,22.40
2023-04-23T23:48:41.207Z,21.10
2023-04-23T23:53:45.029Z,21.60
2023-04-23T23:56:17.213Z,21.10
2023-04-23T23:58:49.808Z,20.30
